Time;durP1;ratioP1;P1;durP2;ratioP2;P2;SDS_P1;SDS_P2;PMS_P1;PMS_P2;Temp;Humidity;BMP_temperature;BMP_pressure;BME280_temperature;BME280_humidity;BME280_pressure;Samples;Min_cycle;Max_cycle;Signal;HPM_P1;HPM_P2
2024/02/16 00:01:14;;;;;;;9.60;5.60;;;;;;;-147.86;100.00;-17609.17;105627;1260;73021;-56
2024/02/16 00:03:42;;;;;;;9.30;5.40;;;;;;;-147.86;100.00;-17609.17;105649;1261;63120;-57
2024/02/16 00:06:11;;;;;;;8.80;4.70;;;;;;;-147.86;100.00;-17609.17;105642;1260;71360;-57
2024/02/16 00:08:40;;;;;;;11.50;5.10;;;;;;;-147.86;100.00;-17609.17;105657;1259;60555;-55
2024/02/16 00:11:07;;;;;;;7.80;5.20;;;;;;;-147.86;100.00;-17609.17;105657;1269;60420;-55
2024/02/16 00:13:35;;;;;;;9.90;5.30;;;;;;;-147.86;100.00;-17609.17;105630;1263;72601;-56
2024/02/16 00:16:04;;;;;;;12.10;5.50;;;;;;;-147.86;100.00;-17609.17;105707;1261;64476;-57
2024/02/16 00:55:48;;;;;;;;;;;;;;;-147.86;100.00;-15753.22;102728;1295;599703;-55
2024/02/16 00:58:16;;;;;;;12.20;6.00;;;;;;;-147.86;100.00;-17609.17;105064;1264;59907;-57
2024/02/16 01:00:44;;;;;;;14.40;6.00;;;;;;;-147.86;100.00;-17609.17;104878;1267;59286;-57
2024/02/16 01:03:15;;;;;;;13.60;6.00;;;;;;;-147.86;100.00;-17609.17;104892;1266;70031;-56
2024/02/16 01:05:42;;;;;;;11.30;5.70;;;;;;;-147.86;100.00;-17609.17;104884;1269;62914;-51
2024/02/16 01:08:11;;;;;;;15.10;7.00;;;;;;;-147.86;100.00;-17609.17;104891;1264;72672;-57
2024/02/16 01:10:39;;;;;;;8.90;6.00;;;;;;;-147.86;100.00;-17609.17;105046;1267;59995;-55
2024/02/16 01:13:07;;;;;;;14.00;6.30;;;;;;;-147.86;100.00;-17609.17;105159;1269;59289;-56
2024/02/16 01:15:36;;;;;;;8.70;5.70;;;;;;;-147.86;100.00;-17609.17;105185;1263;70980;-55
2024/02/16 01:18:05;;;;;;;10.80;5.70;;;;;;;-147.86;100.00;-17609.17;105230;1263;63199;-54
2024/02/16 01:20:33;;;;;;;13.40;6.70;;;;;;;-147.86;100.00;-17609.17;105177;1264;71432;-57
2024/02/16 01:23:01;;;;;;;9.70;6.00;;;;;;;-147.86;100.00;-17609.17;105156;1264;59745;-54
2024/02/16 01:25:29;;;;;;;17.60;6.80;;;;;;;-147.86;100.00;-17609.17;105168;1264;59947;-55
2024/02/16 01:27:56;;;;;;;16.60;6.20;;;;;;;-147.86;100.00;-17609.17;105136;1263;71818;-56
2024/02/16 01:30:24;;;;;;;13.20;6.60;;;;;;;-147.86;100.00;-17609.17;105169;1264;62438;-55
2024/02/16 01:32:52;;;;;;;9.70;6.40;;;;;;;-147.86;100.00;-17609.17;105127;1264;71379;-56
2024/02/16 01:35:21;;;;;;;15.00;6.70;;;;;;;-147.86;100.00;-17609.17;105223;1267;59746;-56
2024/02/16 01:37:49;;;;;;;13.20;6.50;;;;;;;-147.86;100.00;-17609.17;105147;1267;59765;-55
2024/02/16 01:40:17;;;;;;;14.50;6.20;;;;;;;-147.86;100.00;-17609.17;105161;1263;71820;-58
2024/02/16 01:42:49;;;;;;;13.50;6.40;;;;;;;-147.86;100.00;-17609.17;105217;1264;63613;-53
2024/02/16 01:45:17;;;;;;;12.40;6.80;;;;;;;-147.86;100.00;-17609.17;105186;1263;72597;-56
2024/02/16 01:47:47;;;;;;;13.10;6.90;;;;;;;-147.86;100.00;-17609.17;105151;1263;59787;-53
2024/02/16 01:50:15;;;;;;;11.30;6.40;;;;;;;-147.86;100.00;-17609.17;105226;1263;60253;-55
2024/02/16 01:52:44;;;;;;;15.30;7.00;;;;;;;-147.86;100.00;-17609.17;105166;1267;73051;-54
2024/02/16 01:55:12;;;;;;;13.10;7.00;;;;;;;-147.86;100.00;-17609.17;105174;1264;64518;-56
2024/02/16 01:57:40;;;;;;;13.60;6.00;;;;;;;-147.86;100.00;-17609.17;105181;1264;70812;-55
2024/02/16 02:00:08;;;;;;;10.20;6.30;;;;;;;-147.86;100.00;-17609.17;105158;1269;59793;-56
2024/02/16 02:02:36;;;;;;;12.00;6.30;;;;;;;-147.86;100.00;-17609.17;105183;1268;59708;-52
2024/02/16 02:05:04;;;;;;;11.20;6.50;;;;;;;-147.86;100.00;-17609.17;105108;1269;73056;-54
2024/02/16 02:07:33;;;;;;;12.00;6.60;;;;;;;-147.86;100.00;-17609.17;105173;1263;63530;-52
2024/02/16 02:10:01;;;;;;;14.00;6.30;;;;;;;-147.86;100.00;-17609.17;105125;1269;71439;-54
2024/02/16 02:12:28;;;;;;;13.30;6.60;;;;;;;-147.86;100.00;-17609.17;105093;1264;60773;-56
2024/02/16 02:57:06;;;;;;;;;;;;;;;-147.86;100.00;-12513.23;102788;1294;599759;-55
2024/02/16 03:00:19;;;;;;;14.10;6.90;;;;;;;-147.86;100.00;-17559.54;102835;1295;600575;-55
2024/02/16 03:02:48;;;;;;;16.00;8.00;;;;;;;-147.86;100.00;-17609.17;105095;1265;59340;-56
2024/02/16 03:05:16;;;;;;;16.70;8.20;;;;;;;-147.86;100.00;-17609.17;104830;1270;59514;-57
2024/02/16 03:07:44;;;;;;;18.40;7.90;;;;;;;-147.86;100.00;-17609.17;104877;1272;71075;-58
2024/02/16 03:10:14;;;;;;;17.50;8.70;;;;;;;-147.86;100.00;-17609.17;104890;1270;63113;-56
2024/02/16 03:12:42;;;;;;;17.60;7.80;;;;;;;-147.86;100.00;-17609.17;104888;1269;71461;-53
2024/02/16 03:15:10;;;;;;;13.90;7.70;;;;;;;-147.86;100.00;-17609.17;105005;1266;316738;-57
2024/02/16 03:17:38;;;;;;;15.40;8.60;;;;;;;-147.86;100.00;-17609.17;105221;1269;59817;-57
2024/02/16 03:20:07;;;;;;;15.70;7.30;;;;;;;-147.86;100.00;-17609.17;105213;1264;71229;-57
2024/02/16 03:22:35;;;;;;;14.90;8.10;;;;;;;-147.86;100.00;-17609.17;105217;1266;64332;-55
2024/02/16 03:25:05;;;;;;;13.20;7.60;;;;;;;-147.86;100.00;-17609.17;105200;1261;72659;-56
2024/02/16 03:27:33;;;;;;;18.40;8.90;;;;;;;-147.86;100.00;-17609.17;105187;1266;59621;-55
2024/02/16 03:30:02;;;;;;;19.20;9.00;;;;;;;-147.86;100.00;-17609.17;105223;1264;59715;-52
2024/02/16 03:32:31;;;;;;;15.50;9.00;;;;;;;-147.86;100.00;-17609.17;105199;1260;71773;-56
2024/02/16 03:35:00;;;;;;;22.80;8.80;;;;;;;-147.86;100.00;-17609.17;105224;1269;63092;-59
2024/02/16 03:37:28;;;;;;;24.70;9.90;;;;;;;-147.86;100.00;-17609.17;105189;1261;72627;-51
2024/02/16 03:39:55;;;;;;;16.80;8.80;;;;;;;-147.86;100.00;-17609.17;105154;1268;59745;-54
2024/02/16 03:42:23;;;;;;;17.00;9.40;;;;;;;-147.86;100.00;-17609.17;105148;1266;60831;-54
2024/02/16 03:44:51;;;;;;;21.90;8.80;;;;;;;-147.86;100.00;-17609.17;105201;1263;73517;-55
2024/02/16 03:47:18;;;;;;;16.00;9.10;;;;;;;-147.86;100.00;-17609.17;105179;1267;64448;-58
2024/02/16 03:49:46;;;;;;;15.00;9.20;;;;;;;-147.86;100.00;-17609.17;105264;1265;71455;-57
2024/02/16 03:52:14;;;;;;;20.70;9.40;;;;;;;-147.86;100.00;-17609.17;105890;1253;59751;-54
2024/02/16 03:54:43;;;;;;;23.00;9.90;;;;;;;-147.86;100.00;-17609.17;105759;1256;59544;-54
2024/02/16 03:57:12;;;;;;;19.50;10.50;;;;;;;-147.86;100.00;-17609.17;105753;1258;71822;-56
2024/02/16 03:59:40;;;;;;;20.40;10.10;;;;;;;-147.86;100.00;-17609.17;105877;1257;63194;-56
2024/02/16 04:02:07;;;;;;;20.50;10.30;;;;;;;-147.86;100.00;-17609.17;105736;1261;71579;-58
2024/02/16 04:56:32;;;;;;;;;;;;;;;-147.86;100.00;3843.81;102840;1291;600720;-55
2024/02/16 04:59:00;;;;;;;20.90;10.80;;;;;;;-147.86;100.00;-17393.29;105173;1264;59240;-53
2024/02/16 05:01:29;;;;;;;19.30;11.00;;;;;;;-147.86;100.00;-17609.17;105048;1264;59331;-54
2024/02/16 05:04:01;;;;;;;24.60;11.20;;;;;;;-147.86;100.00;-17609.17;105096;1264;71069;-55
2024/02/16 05:06:29;;;;;;;24.80;11.30;;;;;;;-147.86;100.00;-17609.17;105144;1270;64361;-55
2024/02/16 05:08:57;;;;;;;20.80;11.00;;;;;;;-147.86;100.00;-17609.17;105063;1267;71392;-55
2024/02/16 05:11:25;;;;;;;20.00;11.40;;;;;;;-147.86;100.00;-17609.17;105079;1264;59717;-53
2024/02/16 05:56:15;;;;;;;19.50;11.00;;;;;;;-147.86;100.00;2443.46;102775;1291;600837;-56
2024/02/16 05:58:42;;;;;;;21.10;11.50;;;;;;;-147.86;100.00;-17609.17;105037;1266;60391;-56
2024/02/16 06:01:12;;;;;;;25.30;12.10;;;;;;;-147.86;100.00;-17589.70;105035;1264;59359;-55
2024/02/16 06:03:42;;;;;;;28.00;13.20;;;;;;;-147.86;100.00;-17463.45;105077;1264;70946;-56
2024/02/16 06:06:10;;;;;;;31.00;11.90;;;;;;;-147.86;100.00;-17296.23;105050;1269;63246;-56
2024/02/16 06:55:57;;;;;;;;;;;;;;;-147.86;100.00;1937.12;102679;1292;601366;-55
2024/02/16 06:58:25;;;;;;;23.40;12.30;;;;;;;-147.86;100.00;-17609.17;104893;1266;60114;-56
2024/02/16 07:00:52;;;;;;;30.90;14.50;;;;;;;-147.86;100.00;-17609.17;104851;1266;59262;-55
2024/02/16 07:03:20;;;;;;;20.70;12.60;;;;;;;-147.86;100.00;-17609.17;104822;1266;72207;-56
2024/02/16 07:05:48;;;;;;;26.40;12.30;;;;;;;-147.86;100.00;-17608.11;104818;1267;63120;-52
2024/02/16 07:08:16;;;;;;;21.40;12.60;;;;;;;-147.86;100.00;-17609.17;104785;1266;71407;-56
2024/02/16 07:10:44;;;;;;;23.50;12.30;;;;;;;-147.86;100.00;-17609.17;104873;1263;257075;-56
2024/02/16 07:13:12;;;;;;;29.40;12.80;;;;;;;-147.86;100.00;-17609.17;105110;1264;59954;-55
2024/02/16 07:15:40;;;;;;;18.60;10.90;;;;;;;-147.86;100.00;-17609.17;105100;1268;72249;-56
2024/02/16 07:18:09;;;;;;;23.20;12.80;;;;;;;-147.86;100.00;-17609.17;105190;1263;63162;-59
2024/02/16 07:20:38;;;;;;;34.00;18.10;;;;;;;-147.86;100.00;-17609.17;105134;1264;71493;-53
2024/02/16 07:23:06;;;;;;;26.50;15.80;;;;;;;-147.86;100.00;-17609.17;105102;1263;60311;-56
2024/02/16 07:25:34;;;;;;;24.50;12.00;;;;;;;-147.86;100.00;-17609.17;105136;1264;59657;-57
2024/02/16 07:28:01;;;;;;;22.40;11.30;;;;;;;-147.86;100.00;-17609.17;105073;1268;71899;-54
2024/02/16 07:30:29;;;;;;;22.70;11.30;;;;;;;-147.86;100.00;-17609.17;105135;1263;63120;-56
2024/02/16 07:33:09;;;;;;;24.20;12.40;;;;;;;-147.86;100.00;-17609.17;105081;1264;70459;-53
2024/02/16 07:35:38;;;;;;;27.30;12.70;;;;;;;-147.86;100.00;-17609.17;105867;1257;60373;-50
2024/02/16 07:38:06;;;;;;;25.60;12.00;;;;;;;-147.86;100.00;-17609.17;105906;1251;59998;-54
2024/02/16 07:40:34;;;;;;;26.40;12.80;;;;;;;-147.86;100.00;-17609.17;105853;1251;72983;-57
2024/02/16 07:43:03;;;;;;;20.60;12.80;;;;;;;-147.86;100.00;-17609.17;105815;1257;65304;-54
2024/02/16 07:45:31;;;;;;;26.40;13.70;;;;;;;-147.86;100.00;-17609.17;105929;1251;72457;-55
2024/02/16 07:47:59;;;;;;;25.90;12.70;;;;;;;-147.86;100.00;-17609.17;105796;1257;60720;-55
2024/02/16 07:50:27;;;;;;;27.60;12.40;;;;;;;-147.86;100.00;-17609.17;105886;1251;59764;-52
2024/02/16 07:52:55;;;;;;;23.10;12.10;;;;;;;-147.86;100.00;-17609.17;105830;1257;72310;-52
2024/02/16 07:55:24;;;;;;;24.70;12.60;;;;;;;-147.86;100.00;-17609.17;105803;1253;63439;-57
2024/02/16 07:57:52;;;;;;;19.50;11.30;;;;;;;-147.86;100.00;-17609.17;105762;1251;72541;-56
2024/02/16 08:00:20;;;;;;;24.10;11.60;;;;;;;-147.86;100.00;-17609.17;105748;1254;59838;-53
2024/02/16 08:02:48;;;;;;;23.50;12.10;;;;;;;-147.86;100.00;-17609.17;105746;1256;59981;-56
2024/02/16 08:05:18;;;;;;;27.00;13.40;;;;;;;-147.86;100.00;-17609.17;105670;1256;75361;-54
2024/02/16 08:07:47;;;;;;;25.50;12.00;;;;;;;-147.86;100.00;-17609.17;105777;1257;63155;-55
2024/02/16 08:10:20;;;;;;;26.50;12.70;;;;;;;-147.86;100.00;-17609.17;105687;1253;72602;-57
2024/02/16 08:12:48;;;;;;;29.10;12.10;;;;;;;-147.86;100.00;-17609.17;105729;1251;60863;-55
2024/02/16 08:15:22;;;;;;;27.00;13.70;;;;;;;-147.86;100.00;-17609.17;105739;1257;60273;-54
2024/02/16 08:17:52;;;;;;;24.00;12.20;;;;;;;-147.86;100.00;-17609.17;105720;1253;75282;-57
2024/02/16 08:20:21;;;;;;;28.50;13.00;;;;;;;-147.86;100.00;-17609.17;105734;1251;64004;-57
2024/02/16 08:22:48;;;;;;;22.60;12.60;;;;;;;-147.86;100.00;-17609.17;105725;1257;72813;-56
2024/02/16 08:25:16;;;;;;;25.80;12.50;;;;;;;-147.86;100.00;-17609.17;105686;1254;59679;-55
2024/02/16 08:27:44;;;;;;;24.00;12.90;;;;;;;-147.86;100.00;-17609.17;105720;1251;59734;-54
2024/02/16 08:30:12;;;;;;;25.10;13.10;;;;;;;-147.86;100.00;-17609.17;105666;1258;73050;-55
2024/02/16 08:32:41;;;;;;;31.90;13.60;;;;;;;-147.86;100.00;-17609.17;105715;1253;63991;-55
2024/02/16 08:35:09;;;;;;;25.90;13.90;;;;;;;-147.86;100.00;-17609.17;105712;1253;72502;-53
2024/02/16 08:37:37;;;;;;;22.90;12.70;;;;;;;-147.86;100.00;-17609.17;105718;1253;59711;-55
2024/02/16 08:40:05;;;;;;;25.00;13.40;;;;;;;-147.86;100.00;-17609.17;105698;1254;59951;-55
2024/02/16 08:42:33;;;;;;;30.20;14.90;;;;;;;-147.86;100.00;-17609.17;105725;1253;74129;-55
2024/02/16 08:45:01;;;;;;;25.80;13.80;;;;;;;-147.86;100.00;-17609.17;105708;1253;64473;-57
2024/02/16 08:47:29;;;;;;;27.30;12.60;;;;;;;-147.86;100.00;-17609.17;105690;1254;74911;-57
2024/02/16 08:49:57;;;;;;;27.30;13.00;;;;;;;-147.86;100.00;-17609.17;105729;1256;59692;-56
2024/02/16 08:52:24;;;;;;;20.30;12.10;;;;;;;-147.86;100.00;-17609.17;105701;1257;59658;-59
2024/02/16 08:54:52;;;;;;;25.10;12.40;;;;;;;-147.86;100.00;-17609.17;105680;1253;73040;-58
2024/02/16 08:57:20;;;;;;;23.20;12.60;;;;;;;-147.86;100.00;-17609.17;105685;1252;63148;-56
2024/02/16 08:59:47;;;;;;;23.50;12.40;;;;;;;-147.86;100.00;-17609.17;105655;1253;72813;-55
2024/02/16 09:02:15;;;;;;;21.10;12.10;;;;;;;-147.86;100.00;-17609.17;105689;1253;59982;-52
2024/02/16 09:04:43;;;;;;;24.30;11.50;;;;;;;-147.86;100.00;-17609.17;105728;1253;62274;-56
2024/02/16 09:07:11;;;;;;;21.60;11.40;;;;;;;-147.86;100.00;-17609.17;105658;1259;76051;-55
2024/02/16 09:09:39;;;;;;;25.60;12.40;;;;;;;-147.86;100.00;-17609.17;105681;1258;64231;-56
2024/02/16 09:12:07;;;;;;;21.90;11.90;;;;;;;-147.86;100.00;-17609.17;105690;1255;72487;-56
2024/02/16 09:14:35;;;;;;;22.50;11.10;;;;;;;-147.86;100.00;-17609.17;105750;1257;59708;-54
2024/02/16 09:17:03;;;;;;;21.60;11.40;;;;;;;-147.86;100.00;-17609.17;105706;1256;59622;-56
2024/02/16 09:19:31;;;;;;;23.80;12.80;;;;;;;-147.86;100.00;-17609.17;105726;1251;73335;-53
2024/02/16 09:22:01;;;;;;;24.10;12.60;;;;;;;-147.86;100.00;-17609.17;105721;1257;64794;-55
2024/02/16 09:24:29;;;;;;;17.50;10.90;;;;;;;-147.86;100.00;-17609.17;105695;1253;74927;-53
2024/02/16 09:26:58;;;;;;;22.70;11.20;;;;;;;-147.86;100.00;-17609.17;105681;1253;59817;-54
2024/02/16 09:29:25;;;;;;;26.10;12.00;;;;;;;-147.86;100.00;-17609.17;105718;1251;62251;-53
2024/02/16 09:31:54;;;;;;;22.00;11.20;;;;;;;-147.86;100.00;-17609.17;105699;1257;72800;-53
2024/02/16 09:34:22;;;;;;;25.40;11.40;;;;;;;-147.86;100.00;-17609.17;105731;1257;66320;-56
2024/02/16 09:36:50;;;;;;;20.50;11.00;;;;;;;-147.86;100.00;-17609.17;105741;1253;73043;-51
2024/02/16 09:39:17;;;;;;;20.50;10.80;;;;;;;-147.86;100.00;-17609.17;105668;1257;59685;-55
2024/02/16 09:41:49;;;;;;;20.70;10.70;;;;;;;-147.86;100.00;-17393.75;105771;1253;62009;-54
2024/02/16 09:44:17;;;;;;;18.00;11.20;;;;;;;-147.86;100.00;-17609.17;105717;1257;73394;-52
2024/02/16 09:46:45;;;;;;;23.60;12.30;;;;;;;-147.86;100.00;-17609.17;105738;1253;62469;-55
2024/02/16 09:49:13;;;;;;;23.10;11.80;;;;;;;-147.86;100.00;-17609.17;105691;1254;74955;-55
2024/02/16 09:51:40;;;;;;;21.60;10.20;;;;;;;-147.86;100.00;-17609.17;105729;1253;60826;-54
2024/02/16 09:54:08;;;;;;;21.20;10.90;;;;;;;-147.86;100.00;-17609.17;105683;1251;62361;-57
2024/02/16 09:56:36;;;;;;;21.50;10.90;;;;;;;-147.86;100.00;-17609.17;105680;1257;72813;-54
2024/02/16 09:59:04;;;;;;;19.30;10.20;;;;;;;-147.86;100.00;-17609.17;105737;1257;64370;-58
2024/02/16 10:01:35;;;;;;;21.20;11.10;;;;;;;-147.86;100.00;-17609.17;105701;1257;74813;-52
2024/02/16 10:04:09;;;;;;;20.80;10.70;;;;;;;-147.86;100.00;-17609.17;105696;1256;61206;-56
2024/02/16 10:06:48;;;;;;;17.70;10.60;;;;;;;-147.86;100.00;-17609.17;105678;1257;59669;-58
2024/02/16 10:09:26;;;;;;;23.30;11.00;;;;;;;-147.86;100.00;-17609.17;105732;1252;74264;-54
2024/02/16 10:11:54;;;;;;;21.50;11.30;;;;;;;-147.86;100.00;-17609.17;105787;1257;64602;-55
2024/02/16 10:14:25;;;;;;;17.60;11.10;;;;;;;-147.86;100.00;-17609.17;105750;1257;71765;-55
2024/02/16 10:17:00;;;;;;;28.10;11.50;;;;;;;-147.86;100.00;-17609.17;105678;1254;60445;-57
2024/02/16 10:19:31;;;;;;;25.10;11.60;;;;;;;-147.86;100.00;-17609.17;105704;1252;60096;-55
2024/02/16 10:22:08;;;;;;;20.00;10.70;;;;;;;-147.86;100.00;-17609.17;105667;1257;75632;-56
2024/02/16 10:24:38;;;;;;;27.70;14.40;;;;;;;-147.86;100.00;-17609.17;105589;1257;65073;-53
2024/02/16 10:27:14;;;;;;;27.40;14.20;;;;;;;-147.86;100.00;-17609.17;105702;1253;71992;-56
2024/02/16 10:29:46;;;;;;;20.80;10.90;;;;;;;-147.86;100.00;-17609.17;105708;1256;60828;-58
2024/02/16 10:32:14;;;;;;;20.50;10.90;;;;;;;-147.86;100.00;-17609.17;105743;1253;60393;-56
2024/02/16 10:34:42;;;;;;;20.20;9.90;;;;;;;-147.86;100.00;-17609.17;105699;1253;72945;-54
2024/02/16 10:37:11;;;;;;;17.70;9.80;;;;;;;-147.86;100.00;-17609.17;105691;1253;65904;-56
2024/02/16 10:39:39;;;;;;;19.30;10.60;;;;;;;-147.86;100.00;-17609.17;105719;1253;72338;-57
2024/02/16 10:42:07;;;;;;;20.40;10.50;;;;;;;-147.86;100.00;-17609.17;105705;1258;62085;-57
2024/02/16 10:44:35;;;;;;;17.80;9.40;;;;;;;-147.86;100.00;-17609.17;105680;1253;60334;-55
2024/02/16 10:47:04;;;;;;;17.50;9.60;;;;;;;-147.86;100.00;-17609.17;105715;1253;73008;-55
2024/02/16 10:49:32;;;;;;;18.90;9.30;;;;;;;-147.86;100.00;-17609.17;105720;1257;64295;-54
2024/02/16 10:52:00;;;;;;;21.20;10.30;;;;;;;-147.86;100.00;-17609.17;105690;1253;72064;-52
2024/02/16 10:54:30;;;;;;;16.40;9.30;;;;;;;-147.86;100.00;-17609.17;105667;1257;59972;-54
2024/02/16 10:56:59;;;;;;;13.50;9.30;;;;;;;-147.86;100.00;-17609.17;105688;1253;60114;-54
2024/02/16 10:59:28;;;;;;;17.60;9.70;;;;;;;-147.86;100.00;-17609.17;105678;1253;75155;-54
2024/02/16 11:02:00;;;;;;;14.10;8.50;;;;;;;-147.86;100.00;-17609.17;105655;1259;64514;-57
2024/02/16 11:04:37;;;;;;;16.30;9.20;;;;;;;-147.86;100.00;-17609.17;105716;1252;71813;-54
2024/02/16 11:07:13;;;;;;;19.70;10.30;;;;;;;-147.86;100.00;-17609.17;105759;1253;60575;-55
2024/02/16 11:09:41;;;;;;;18.10;10.20;;;;;;;-147.86;100.00;-17609.17;105764;1258;61009;-53
2024/02/16 11:12:12;;;;;;;17.10;9.90;;;;;;;-147.86;100.00;-17609.17;105745;1253;76141;-56
2024/02/16 11:14:42;;;;;;;14.50;9.50;;;;;;;-147.86;100.00;-17609.17;105729;1257;64638;-56
2024/02/16 11:17:11;;;;;;;16.20;9.50;;;;;;;-147.86;100.00;-17609.17;105719;1253;72663;-53
2024/02/16 11:19:42;;;;;;;23.80;11.40;;;;;;;-147.86;100.00;-17609.17;105654;1254;60563;-55
2024/02/16 11:22:11;;;;;;;20.40;10.20;;;;;;;-147.86;100.00;-17609.17;105714;1253;60552;-56
2024/02/16 11:24:44;;;;;;;20.50;10.60;;;;;;;-147.86;100.00;-17609.17;105689;1259;74194;-57
2024/02/16 11:27:15;;;;;;;18.90;9.70;;;;;;;-147.86;100.00;-17609.17;105688;1255;66760;-55
2024/02/16 11:29:43;;;;;;;14.30;8.40;;;;;;;-147.86;100.00;-17609.17;105722;1256;71692;-58
2024/02/16 11:32:11;;;;;;;23.20;10.40;;;;;;;-147.86;100.00;-17609.17;105590;1258;61705;-57
2024/02/16 11:34:39;;;;;;;15.10;8.60;;;;;;;-147.86;100.00;-17609.17;105650;1256;60551;-55
2024/02/16 11:37:06;;;;;;;18.30;9.40;;;;;;;-147.86;100.00;-17609.17;105665;1254;74064;-57
2024/02/16 11:39:38;;;;;;;19.40;10.20;;;;;;;-147.86;100.00;-17609.17;105605;1255;67222;-52
2024/02/16 11:42:10;;;;;;;16.20;9.70;;;;;;;-147.86;100.00;-17609.17;105631;1256;75034;-52
2024/02/16 11:44:42;;;;;;;14.80;9.10;;;;;;;-147.86;100.00;-17609.17;105658;1256;60473;-57
2024/02/16 11:47:14;;;;;;;13.20;9.50;;;;;;;-147.86;100.00;-17609.17;105638;1254;60583;-56
2024/02/16 11:49:42;;;;;;;21.10;10.80;;;;;;;-147.86;100.00;-17609.17;105644;1254;76119;-57
2024/02/16 11:52:10;;;;;;;15.30;9.70;;;;;;;-147.86;100.00;-17609.17;109350;1254;66306;-54
2024/02/16 11:57:27;;;;;;;23.30;10.40;;;;;;;-147.86;100.00;-15335.00;102827;1294;600274;-55
2024/02/16 11:59:55;;;;;;;19.80;9.40;;;;;;;-147.86;100.00;-17609.17;104819;1272;61902;-55
2024/02/16 12:02:24;;;;;;;16.80;9.70;;;;;;;-147.86;100.00;-17609.17;105092;1264;59289;-56
2024/02/16 12:04:59;;;;;;;21.40;10.10;;;;;;;-147.86;100.00;-17609.17;105074;1264;71589;-55
2024/02/16 12:07:31;;;;;;;14.80;9.00;;;;;;;-147.86;100.00;-17609.17;105057;1269;66744;-57
2024/02/16 12:10:04;;;;;;;18.60;9.00;;;;;;;-147.86;100.00;-17609.17;104873;1262;246464;-55
2024/02/16 12:12:33;;;;;;;21.30;9.40;;;;;;;-147.86;100.00;-17609.17;105234;1264;59322;-54
2024/02/16 12:15:01;;;;;;;21.50;9.50;;;;;;;-147.86;100.00;-17609.17;105281;1264;62753;-55
2024/02/16 12:17:29;;;;;;;16.80;8.90;;;;;;;-147.86;100.00;-17609.17;105190;1264;71752;-53
2024/02/16 12:19:57;;;;;;;15.70;9.30;;;;;;;-147.86;100.00;-17609.17;105237;1266;64771;-55
2024/02/16 12:22:25;;;;;;;18.40;9.80;;;;;;;-147.86;100.00;-17609.17;105215;1263;74633;-58
2024/02/16 12:24:53;;;;;;;17.00;9.10;;;;;;;-147.86;100.00;-17609.17;105206;1263;60875;-59
2024/02/16 12:27:21;;;;;;;19.20;10.40;;;;;;;-147.86;100.00;-17609.17;105178;1264;62207;-51
2024/02/16 12:29:49;;;;;;;20.50;10.00;;;;;;;-147.86;100.00;-17609.17;105247;1266;71725;-54
2024/02/16 12:32:19;;;;;;;17.00;9.40;;;;;;;-147.86;100.00;-17609.17;105244;1267;64979;-57
2024/02/16 12:34:47;;;;;;;17.10;9.80;;;;;;;-147.86;100.00;-17609.17;105247;1266;72909;-55
2024/02/16 12:37:15;;;;;;;19.20;9.60;;;;;;;-147.86;100.00;-17609.17;105169;1263;63124;-56
2024/02/16 12:39:45;;;;;;;22.10;8.90;;;;;;;-147.86;100.00;-17609.17;105229;1263;61698;-55
2024/02/16 12:42:14;;;;;;;17.40;9.90;;;;;;;-147.86;100.00;-17609.17;105278;1264;74311;-56
2024/02/16 12:44:42;;;;;;;17.20;8.20;;;;;;;-147.86;100.00;-17609.17;105200;1266;65359;-57
2024/02/16 12:47:09;;;;;;;30.00;10.10;;;;;;;-147.86;100.00;-17609.17;105220;1266;74768;-51
2024/02/16 12:49:37;;;;;;;17.90;9.30;;;;;;;-147.86;100.00;-17609.17;105226;1266;60702;-58
2024/02/16 12:52:05;;;;;;;20.20;9.10;;;;;;;-147.86;100.00;-17609.17;105226;1264;60342;-55
2024/02/16 12:54:34;;;;;;;15.90;9.00;;;;;;;-147.86;100.00;-17609.17;105134;1264;73889;-54
2024/02/16 12:57:02;;;;;;;19.00;10.10;;;;;;;-147.86;100.00;-17609.17;105203;1267;64833;-52
2024/02/16 12:59:30;;;;;;;14.50;9.30;;;;;;;-147.86;100.00;-17609.17;105182;1267;74491;-54
2024/02/16 13:01:57;;;;;;;18.70;9.80;;;;;;;-147.86;100.00;-17609.17;105148;1267;59741;-52
2024/02/16 13:04:26;;;;;;;17.10;10.40;;;;;;;-147.86;100.00;-17609.17;105170;1264;59984;-55
2024/02/16 13:06:54;;;;;;;16.00;9.00;;;;;;;-147.86;100.00;-17609.17;105193;1263;73644;-55
2024/02/16 13:09:22;;;;;;;22.00;13.60;;;;;;;-147.86;100.00;-17609.17;105166;1264;64347;-55
2024/02/16 13:11:54;;;;;;;44.30;24.00;;;;;;;-147.86;100.00;-17609.17;105159;1263;72998;-56
2024/02/16 13:14:22;;;;;;;26.10;15.30;;;;;;;-147.86;100.00;-17609.17;105076;1269;61221;-55
2024/02/16 13:16:50;;;;;;;23.30;8.80;;;;;;;-147.86;100.00;-17609.17;105158;1264;62219;-53
2024/02/16 13:19:18;;;;;;;19.40;10.20;;;;;;;-147.86;100.00;-17609.17;105012;1264;73565;-52
2024/02/16 13:21:46;;;;;;;35.80;19.90;;;;;;;-147.86;100.00;-17609.17;105166;1267;64834;-55
2024/02/16 13:24:14;;;;;;;30.90;19.40;;;;;;;-147.86;100.00;-17609.17;105046;1268;72599;-53
2024/02/16 13:27:00;;;;;;;20.80;11.00;;;;;;;-147.86;100.00;-17609.17;105158;1263;59647;-54
2024/02/16 13:29:29;;;;;;;18.00;9.10;;;;;;;-147.86;100.00;-17609.17;105184;1263;60394;-58
2024/02/16 13:31:57;;;;;;;16.70;8.50;;;;;;;-147.86;100.00;-17609.17;105207;1267;72531;-56
2024/02/16 13:34:26;;;;;;;14.80;8.60;;;;;;;-147.86;100.00;-17609.17;105128;1267;65240;-56
2024/02/16 13:36:54;;;;;;;24.40;11.50;;;;;;;-147.86;100.00;-17609.17;105194;1264;72842;-54
2024/02/16 13:39:22;;;;;;;14.10;7.70;;;;;;;-147.86;100.00;-17609.17;105141;1267;61180;-57
2024/02/16 13:41:50;;;;;;;17.30;8.40;;;;;;;-147.86;100.00;-17609.17;105215;1263;59961;-55
2024/02/16 13:44:18;;;;;;;13.10;7.80;;;;;;;-147.86;100.00;-17609.17;105213;1265;73631;-55
2024/02/16 13:46:49;;;;;;;14.10;8.40;;;;;;;-147.86;100.00;-17609.17;105149;1269;65986;-55
2024/02/16 13:49:17;;;;;;;13.60;7.90;;;;;;;-147.86;100.00;-17609.17;105185;1264;72424;-55
2024/02/16 13:51:45;;;;;;;18.70;7.60;;;;;;;-147.86;100.00;-17609.17;105130;1264;61538;-54
2024/02/16 13:54:14;;;;;;;15.50;7.30;;;;;;;-147.86;100.00;-17609.17;105234;1267;60400;-55
2024/02/16 13:56:41;;;;;;;11.70;7.80;;;;;;;-147.86;100.00;-17609.17;105143;1267;72643;-54
2024/02/16 13:59:09;;;;;;;16.10;7.10;;;;;;;-147.86;100.00;-17609.17;105158;1267;64720;-55
2024/02/16 14:01:37;;;;;;;15.50;7.60;;;;;;;-147.86;100.00;-17609.17;105163;1264;72627;-54
2024/02/16 14:04:05;;;;;;;16.50;7.50;;;;;;;-147.86;100.00;-17609.17;105065;1268;61122;-55
2024/02/16 14:06:35;;;;;;;12.80;7.50;;;;;;;-147.86;100.00;-17609.17;105240;1264;60354;-57
2024/02/16 14:09:09;;;;;;;12.90;8.20;;;;;;;-147.86;100.00;-17609.17;105189;1263;72900;-51
2024/02/16 14:11:51;;;;;;;14.50;7.90;;;;;;;-147.86;100.00;-17609.17;105218;1267;66813;-55
2024/02/16 14:14:18;;;;;;;12.70;7.70;;;;;;;-147.86;100.00;-17609.17;105197;1267;71102;-55
2024/02/16 14:17:03;;;;;;;17.00;8.00;;;;;;;-147.86;100.00;-17609.17;105170;1269;62037;-56
2024/02/16 14:19:31;;;;;;;18.70;8.40;;;;;;;-147.86;100.00;-17609.17;105190;1264;60666;-55
2024/02/16 14:21:59;;;;;;;21.70;8.90;;;;;;;-147.86;100.00;-17609.17;105147;1269;75396;-55
2024/02/16 14:24:27;;;;;;;19.70;8.90;;;;;;;-147.86;100.00;-17609.17;105121;1262;63377;-53
2024/02/16 14:26:55;;;;;;;28.50;11.20;;;;;;;-147.86;100.00;-17609.17;105138;1264;73261;-55
2024/02/16 14:29:22;;;;;;;14.30;8.80;;;;;;;-147.86;100.00;-17609.17;105209;1267;59752;-53
2024/02/16 14:31:50;;;;;;;14.60;7.70;;;;;;;-147.86;100.00;-17609.17;105103;1269;61145;-56
2024/02/16 14:34:18;;;;;;;12.00;7.70;;;;;;;-147.86;100.00;-17609.17;105314;1260;73348;-55
2024/02/16 14:36:46;;;;;;;13.10;6.80;;;;;;;-147.86;100.00;-17609.17;105240;1264;64854;-55